sensor_id;sensor_type;location;lat;lon;timestamp;temperature;humidity
36660;DHT22;22654;51.054;3.654;2023-04-12T00:00:35;9.30;99.90
36660;DHT22;22654;51.054;3.654;2023-04-12T00:03:04;9.30;99.90
36660;DHT22;22654;51.054;3.654;2023-04-12T00:05:29;9.20;99.90
36660;DHT22;22654;51.054;3.654;2023-04-12T00:07:55;9.30;99.90
36660;DHT22;22654;51.054;3.654;2023-04-12T00:10:21;9.30;99.90
36660;DHT22;22654;51.054;3.654;2023-04-12T00:12:50;9.30;99.90
36660;DHT22;22654;51.054;3.654;2023-04-12T00:15:16;9.40;99.90
36660;DHT22;22654;51.054;3.654;2023-04-12T00:17:42;9.40;99.90
36660;DHT22;22654;51.054;3.654;2023-04-12T00:20:08;9.30;99.90
36660;DHT22;22654;51.054;3.654;2023-04-12T00:22:37;9.30;99.90
36660;DHT22;22654;51.054;3.654;2023-04-12T00:25:03;9.20;99.90
36660;DHT22;22654;51.054;3.654;2023-04-12T00:27:29;9.20;99.90
36660;DHT22;22654;51.054;3.654;2023-04-12T00:29:54;9.20;99.90
36660;DHT22;22654;51.054;3.654;2023-04-12T00:32:20;9.20;99.90
36660;DHT22;22654;51.054;3.654;2023-04-12T00:34:46;9.20;99.90
36660;DHT22;22654;51.054;3.654;2023-04-12T00:37:11;9.10;99.90
36660;DHT22;22654;51.054;3.654;2023-04-12T00:39:38;9.10;99.90
36660;DHT22;22654;51.054;3.654;2023-04-12T00:42:03;9.10;99.90
36660;DHT22;22654;51.054;3.654;2023-04-12T00:44:30;9.10;99.90
36660;DHT22;22654;51.054;3.654;2023-04-12T00:46:57;9.10;99.90
36660;DHT22;22654;51.054;3.654;2023-04-12T00:49:23;9.20;99.90
36660;DHT22;22654;51.054;3.654;2023-04-12T00:52:05;9.20;99.90
36660;DHT22;22654;51.054;3.654;2023-04-12T00:54:32;9.20;99.90
36660;DHT22;22654;51.054;3.654;2023-04-12T00:56:59;9.20;99.90
36660;DHT22;22654;51.054;3.654;2023-04-12T00:59:25;9.30;99.90
36660;DHT22;22654;51.054;3.654;2023-04-12T01:01:51;9.30;99.90
36660;DHT22;22654;51.054;3.654;2023-04-12T01:04:17;9.30;99.90
36660;DHT22;22654;51.054;3.654;2023-04-12T01:12:05;9.20;99.90
36660;DHT22;22654;51.054;3.654;2023-04-12T01:14:36;9.20;99.90
36660;DHT22;22654;51.054;3.654;2023-04-12T01:17:08;9.20;99.90
36660;DHT22;22654;51.054;3.654;2023-04-12T01:25:02;9.40;99.90
36660;DHT22;22654;51.054;3.654;2023-04-12T01:27:41;9.40;99.90
36660;DHT22;22654;51.054;3.654;2023-04-12T01:30:07;9.40;99.90
36660;DHT22;22654;51.054;3.654;2023-04-12T01:32:35;9.40;99.90
36660;DHT22;22654;51.054;3.654;2023-04-12T01:35:03;9.40;99.90
36660;DHT22;22654;51.054;3.654;2023-04-12T01:37:29;9.40;99.90
36660;DHT22;22654;51.054;3.654;2023-04-12T01:39:55;9.50;99.90
36660;DHT22;22654;51.054;3.654;2023-04-12T01:42:21;9.60;99.90
36660;DHT22;22654;51.054;3.654;2023-04-12T01:44:47;9.70;99.90
36660;DHT22;22654;51.054;3.654;2023-04-12T01:47:16;9.60;99.90
36660;DHT22;22654;51.054;3.654;2023-04-12T01:49:48;9.60;99.90
36660;DHT22;22654;51.054;3.654;2023-04-12T01:52:19;9.70;99.90
36660;DHT22;22654;51.054;3.654;2023-04-12T01:54:49;9.70;99.90
36660;DHT22;22654;51.054;3.654;2023-04-12T01:57:15;9.60;99.90
36660;DHT22;22654;51.054;3.654;2023-04-12T01:59:43;9.70;99.90
36660;DHT22;22654;51.054;3.654;2023-04-12T02:02:10;9.80;99.90
36660;DHT22;22654;51.054;3.654;2023-04-12T02:04:36;9.70;99.90
36660;DHT22;22654;51.054;3.654;2023-04-12T02:07:03;9.70;99.90
36660;DHT22;22654;51.054;3.654;2023-04-12T02:09:35;9.60;99.90
36660;DHT22;22654;51.054;3.654;2023-04-12T02:12:03;9.70;99.90
36660;DHT22;22654;51.054;3.654;2023-04-12T02:14:29;9.70;99.90
36660;DHT22;22654;51.054;3.654;2023-04-12T02:16:56;9.70;99.90
36660;DHT22;22654;51.054;3.654;2023-04-12T02:19:23;9.80;99.90
36660;DHT22;22654;51.054;3.654;2023-04-12T02:21:49;9.80;99.90
36660;DHT22;22654;51.054;3.654;2023-04-12T02:24:15;9.80;99.90
36660;DHT22;22654;51.054;3.654;2023-04-12T02:26:43;9.70;99.90
36660;DHT22;22654;51.054;3.654;2023-04-12T02:29:09;9.70;99.90
36660;DHT22;22654;51.054;3.654;2023-04-12T02:31:35;9.80;99.90
36660;DHT22;22654;51.054;3.654;2023-04-12T02:34:04;9.80;99.90
36660;DHT22;22654;51.054;3.654;2023-04-12T02:36:31;9.90;99.90
36660;DHT22;22654;51.054;3.654;2023-04-12T02:38:57;10.00;99.90
36660;DHT22;22654;51.054;3.654;2023-04-12T02:41:24;10.00;99.90
36660;DHT22;22654;51.054;3.654;2023-04-12T02:43:53;10.10;99.90
36660;DHT22;22654;51.054;3.654;2023-04-12T02:46:20;9.90;99.90
36660;DHT22;22654;51.054;3.654;2023-04-12T02:48:50;10.00;99.90
36660;DHT22;22654;51.054;3.654;2023-04-12T02:51:17;10.00;99.90
36660;DHT22;22654;51.054;3.654;2023-04-12T02:53:47;10.10;99.90
36660;DHT22;22654;51.054;3.654;2023-04-12T02:56:16;10.10;99.90
36660;DHT22;22654;51.054;3.654;2023-04-12T02:58:46;10.00;99.90
36660;DHT22;22654;51.054;3.654;2023-04-12T03:01:20;10.10;99.90
36660;DHT22;22654;51.054;3.654;2023-04-12T03:04:08;10.20;99.90
36660;DHT22;22654;51.054;3.654;2023-04-12T03:06:41;10.20;99.90
36660;DHT22;22654;51.054;3.654;2023-04-12T03:09:49;10.20;99.90
36660;DHT22;22654;51.054;3.654;2023-04-12T03:12:17;10.10;99.90
36660;DHT22;22654;51.054;3.654;2023-04-12T03:14:55;10.10;99.90
36660;DHT22;22654;51.054;3.654;2023-04-12T03:17:25;10.10;99.90
36660;DHT22;22654;51.054;3.654;2023-04-12T03:19:52;10.30;99.90
36660;DHT22;22654;51.054;3.654;2023-04-12T03:22:19;10.30;99.90
36660;DHT22;22654;51.054;3.654;2023-04-12T03:24:54;10.20;99.90
36660;DHT22;22654;51.054;3.654;2023-04-12T03:27:21;10.20;99.90
36660;DHT22;22654;51.054;3.654;2023-04-12T03:29:50;10.20;99.90
36660;DHT22;22654;51.054;3.654;2023-04-12T03:32:20;10.20;99.90
36660;DHT22;22654;51.054;3.654;2023-04-12T03:34:52;10.20;99.90
36660;DHT22;22654;51.054;3.654;2023-04-12T03:37:23;10.20;99.90
36660;DHT22;22654;51.054;3.654;2023-04-12T03:39:55;10.10;99.90
36660;DHT22;22654;51.054;3.654;2023-04-12T03:42:23;10.30;99.90
36660;DHT22;22654;51.054;3.654;2023-04-12T03:44:49;10.30;99.90
36660;DHT22;22654;51.054;3.654;2023-04-12T03:47:18;10.40;99.90
36660;DHT22;22654;51.054;3.654;2023-04-12T03:49:45;10.30;99.90
36660;DHT22;22654;51.054;3.654;2023-04-12T03:52:12;10.30;99.90
36660;DHT22;22654;51.054;3.654;2023-04-12T03:54:40;10.40;99.90
36660;DHT22;22654;51.054;3.654;2023-04-12T03:57:10;10.30;99.90
36660;DHT22;22654;51.054;3.654;2023-04-12T03:59:39;10.20;99.90
36660;DHT22;22654;51.054;3.654;2023-04-12T04:02:06;10.20;99.90
36660;DHT22;22654;51.054;3.654;2023-04-12T04:04:38;10.20;99.90
36660;DHT22;22654;51.054;3.654;2023-04-12T04:07:07;10.30;99.90
36660;DHT22;22654;51.054;3.654;2023-04-12T04:09:40;10.20;99.90
36660;DHT22;22654;51.054;3.654;2023-04-12T04:12:07;10.20;99.90
36660;DHT22;22654;51.054;3.654;2023-04-12T04:14:40;10.20;99.90
36660;DHT22;22654;51.054;3.654;2023-04-12T04:17:09;10.20;99.90
36660;DHT22;22654;51.054;3.654;2023-04-12T04:19:35;10.20;99.90
36660;DHT22;22654;51.054;3.654;2023-04-12T04:22:01;10.30;99.90
36660;DHT22;22654;51.054;3.654;2023-04-12T04:24:27;10.20;99.90
36660;DHT22;22654;51.054;3.654;2023-04-12T04:26:57;10.20;99.90
36660;DHT22;22654;51.054;3.654;2023-04-12T04:29:26;10.20;99.90
36660;DHT22;22654;51.054;3.654;2023-04-12T04:31:54;10.10;99.90
36660;DHT22;22654;51.054;3.654;2023-04-12T04:34:21;10.00;99.90
36660;DHT22;22654;51.054;3.654;2023-04-12T04:36:53;10.10;99.90
36660;DHT22;22654;51.054;3.654;2023-04-12T04:39:27;10.10;99.90
36660;DHT22;22654;51.054;3.654;2023-04-12T04:41:59;10.00;99.90
36660;DHT22;22654;51.054;3.654;2023-04-12T04:44:34;10.00;99.90
36660;DHT22;22654;51.054;3.654;2023-04-12T04:47:03;10.00;99.90
36660;DHT22;22654;51.054;3.654;2023-04-12T04:49:29;10.00;99.90
36660;DHT22;22654;51.054;3.654;2023-04-12T04:52:02;9.90;99.90
36660;DHT22;22654;51.054;3.654;2023-04-12T04:54:28;10.00;99.90
36660;DHT22;22654;51.054;3.654;2023-04-12T04:56:55;10.10;99.90
36660;DHT22;22654;51.054;3.654;2023-04-12T04:59:26;10.00;99.90
36660;DHT22;22654;51.054;3.654;2023-04-12T05:01:59;10.00;99.90
36660;DHT22;22654;51.054;3.654;2023-04-12T05:04:25;10.00;99.90
36660;DHT22;22654;51.054;3.654;2023-04-12T05:06:52;9.90;99.90
36660;DHT22;22654;51.054;3.654;2023-04-12T05:09:21;9.90;99.90
36660;DHT22;22654;51.054;3.654;2023-04-12T05:11:54;9.90;99.90
36660;DHT22;22654;51.054;3.654;2023-04-12T05:14:20;9.80;99.90
36660;DHT22;22654;51.054;3.654;2023-04-12T05:16:45;9.60;99.90
36660;DHT22;22654;51.054;3.654;2023-04-12T05:19:11;9.70;99.90
36660;DHT22;22654;51.054;3.654;2023-04-12T05:21:37;9.70;99.90
36660;DHT22;22654;51.054;3.654;2023-04-12T05:24:03;9.60;99.90
36660;DHT22;22654;51.054;3.654;2023-04-12T05:26:32;9.60;99.90
36660;DHT22;22654;51.054;3.654;2023-04-12T05:29:00;9.60;99.90
36660;DHT22;22654;51.054;3.654;2023-04-12T05:31:26;9.60;99.90
36660;DHT22;22654;51.054;3.654;2023-04-12T05:33:56;9.70;99.90
36660;DHT22;22654;51.054;3.654;2023-04-12T05:36:27;9.70;99.90
36660;DHT22;22654;51.054;3.654;2023-04-12T05:38:54;9.70;99.90
36660;DHT22;22654;51.054;3.654;2023-04-12T05:41:19;9.60;99.90
36660;DHT22;22654;51.054;3.654;2023-04-12T05:43:47;9.60;99.90
36660;DHT22;22654;51.054;3.654;2023-04-12T05:46:13;9.50;99.90
36660;DHT22;22654;51.054;3.654;2023-04-12T05:48:41;9.40;99.90
36660;DHT22;22654;51.054;3.654;2023-04-12T05:51:07;9.40;99.90
36660;DHT22;22654;51.054;3.654;2023-04-12T05:53:33;9.40;99.90
36660;DHT22;22654;51.054;3.654;2023-04-12T05:56:02;9.40;99.90
36660;DHT22;22654;51.054;3.654;2023-04-12T05:58:28;9.60;99.90
36660;DHT22;22654;51.054;3.654;2023-04-12T06:00:54;9.60;99.90
36660;DHT22;22654;51.054;3.654;2023-04-12T06:03:20;9.70;99.90
36660;DHT22;22654;51.054;3.654;2023-04-12T06:05:48;9.80;99.90
36660;DHT22;22654;51.054;3.654;2023-04-12T06:08:14;10.00;99.90
36660;DHT22;22654;51.054;3.654;2023-04-12T06:10:40;10.10;99.90
36660;DHT22;22654;51.054;3.654;2023-04-12T06:13:07;10.20;99.90
36660;DHT22;22654;51.054;3.654;2023-04-12T06:15:33;10.20;99.90
36660;DHT22;22654;51.054;3.654;2023-04-12T06:18:00;10.30;99.90
36660;DHT22;22654;51.054;3.654;2023-04-12T06:20:26;10.60;99.90
36660;DHT22;22654;51.054;3.654;2023-04-12T06:22:52;10.90;99.90
36660;DHT22;22654;51.054;3.654;2023-04-12T06:25:19;12.10;99.90
36660;DHT22;22654;51.054;3.654;2023-04-12T06:27:46;13.40;99.90
36660;DHT22;22654;51.054;3.654;2023-04-12T06:30:14;14.90;99.90
36660;DHT22;22654;51.054;3.654;2023-04-12T06:32:41;15.90;99.90
36660;DHT22;22654;51.054;3.654;2023-04-12T06:35:07;15.80;99.90
36660;DHT22;22654;51.054;3.654;2023-04-12T06:37:33;15.10;99.90
36660;DHT22;22654;51.054;3.654;2023-04-12T06:39:58;14.20;99.90
36660;DHT22;22654;51.054;3.654;2023-04-12T06:42:24;14.10;99.90
36660;DHT22;22654;51.054;3.654;2023-04-12T06:44:50;15.10;99.90
36660;DHT22;22654;51.054;3.654;2023-04-12T06:47:15;16.00;99.90
36660;DHT22;22654;51.054;3.654;2023-04-12T06:49:41;15.80;99.90
36660;DHT22;22654;51.054;3.654;2023-04-12T06:52:07;15.50;99.90
36660;DHT22;22654;51.054;3.654;2023-04-12T06:54:36;16.00;99.90
36660;DHT22;22654;51.054;3.654;2023-04-12T06:57:02;17.30;99.90
36660;DHT22;22654;51.054;3.654;2023-04-12T06:59:28;18.70;99.90
36660;DHT22;22654;51.054;3.654;2023-04-12T07:01:54;19.90;99.90
36660;DHT22;22654;51.054;3.654;2023-04-12T07:04:19;19.80;99.90
36660;DHT22;22654;51.054;3.654;2023-04-12T07:06:45;18.60;99.90
36660;DHT22;22654;51.054;3.654;2023-04-12T07:09:11;17.80;99.90
36660;DHT22;22654;51.054;3.654;2023-04-12T07:11:37;16.40;99.90
36660;DHT22;22654;51.054;3.654;2023-04-12T07:14:02;15.60;99.90
36660;DHT22;22654;51.054;3.654;2023-04-12T07:16:28;15.00;99.90
36660;DHT22;22654;51.054;3.654;2023-04-12T07:18:58;14.50;99.90
36660;DHT22;22654;51.054;3.654;2023-04-12T07:21:24;14.30;99.90
36660;DHT22;22654;51.054;3.654;2023-04-12T07:23:51;13.90;99.90
36660;DHT22;22654;51.054;3.654;2023-04-12T07:26:17;13.80;99.90
36660;DHT22;22654;51.054;3.654;2023-04-12T07:28:46;13.60;99.90
36660;DHT22;22654;51.054;3.654;2023-04-12T07:31:12;13.50;99.90
36660;DHT22;22654;51.054;3.654;2023-04-12T07:33:37;13.30;99.90
36660;DHT22;22654;51.054;3.654;2023-04-12T07:36:03;13.20;99.90
36660;DHT22;22654;51.054;3.654;2023-04-12T07:38:32;13.00;99.90
36660;DHT22;22654;51.054;3.654;2023-04-12T07:40:58;12.90;99.90
36660;DHT22;22654;51.054;3.654;2023-04-12T07:43:23;12.90;99.90
36660;DHT22;22654;51.054;3.654;2023-04-12T07:45:49;12.90;99.90
36660;DHT22;22654;51.054;3.654;2023-04-12T07:48:16;12.80;99.90
36660;DHT22;22654;51.054;3.654;2023-04-12T07:50:42;13.10;99.90
36660;DHT22;22654;51.054;3.654;2023-04-12T07:53:18;13.40;99.90
36660;DHT22;22654;51.054;3.654;2023-04-12T07:55:44;14.00;99.90
36660;DHT22;22654;51.054;3.654;2023-04-12T07:58:10;14.50;99.90
36660;DHT22;22654;51.054;3.654;2023-04-12T08:00:36;14.60;99.90
36660;DHT22;22654;51.054;3.654;2023-04-12T08:03:02;14.80;99.90
36660;DHT22;22654;51.054;3.654;2023-04-12T08:05:30;15.20;99.90
36660;DHT22;22654;51.054;3.654;2023-04-12T08:07:56;15.50;99.90
36660;DHT22;22654;51.054;3.654;2023-04-12T08:10:22;15.50;99.90
36660;DHT22;22654;51.054;3.654;2023-04-12T08:12:47;15.40;99.90
36660;DHT22;22654;51.054;3.654;2023-04-12T08:15:13;15.20;99.90
36660;DHT22;22654;51.054;3.654;2023-04-12T08:17:39;15.00;99.90
36660;DHT22;22654;51.054;3.654;2023-04-12T08:20:08;15.10;99.90
36660;DHT22;22654;51.054;3.654;2023-04-12T08:22:34;15.20;99.90
36660;DHT22;22654;51.054;3.654;2023-04-12T08:25:00;15.30;99.90
36660;DHT22;22654;51.054;3.654;2023-04-12T08:27:28;15.30;99.90
36660;DHT22;22654;51.054;3.654;2023-04-12T08:29:53;15.10;99.90
36660;DHT22;22654;51.054;3.654;2023-04-12T08:32:19;15.10;99.90
36660;DHT22;22654;51.054;3.654;2023-04-12T08:34:46;14.90;99.90
36660;DHT22;22654;51.054;3.654;2023-04-12T08:37:12;14.80;99.90
36660;DHT22;22654;51.054;3.654;2023-04-12T08:39:37;15.00;99.90
36660;DHT22;22654;51.054;3.654;2023-04-12T08:42:03;15.10;99.90
36660;DHT22;22654;51.054;3.654;2023-04-12T08:44:33;15.10;99.90
36660;DHT22;22654;51.054;3.654;2023-04-12T08:47:00;15.30;99.90
36660;DHT22;22654;51.054;3.654;2023-04-12T08:49:26;15.40;99.90
36660;DHT22;22654;51.054;3.654;2023-04-12T08:51:52;15.30;99.90
36660;DHT22;22654;51.054;3.654;2023-04-12T08:54:22;15.20;99.90
36660;DHT22;22654;51.054;3.654;2023-04-12T08:56:49;15.10;99.90
36660;DHT22;22654;51.054;3.654;2023-04-12T08:59:17;15.10;99.90
36660;DHT22;22654;51.054;3.654;2023-04-12T09:01:44;15.30;99.90
36660;DHT22;22654;51.054;3.654;2023-04-12T09:04:11;15.70;99.90
36660;DHT22;22654;51.054;3.654;2023-04-12T09:06:36;15.90;99.90
36660;DHT22;22654;51.054;3.654;2023-04-12T09:09:02;16.20;99.90
36660;DHT22;22654;51.054;3.654;2023-04-12T09:11:31;16.10;99.90
36660;DHT22;22654;51.054;3.654;2023-04-12T09:13:57;15.90;99.90
36660;DHT22;22654;51.054;3.654;2023-04-12T09:16:36;15.90;99.90
36660;DHT22;22654;51.054;3.654;2023-04-12T09:19:05;15.90;99.90
36660;DHT22;22654;51.054;3.654;2023-04-12T09:21:32;15.80;99.90
36660;DHT22;22654;51.054;3.654;2023-04-12T09:24:04;15.40;99.90
36660;DHT22;22654;51.054;3.654;2023-04-12T09:26:34;15.40;99.90
36660;DHT22;22654;51.054;3.654;2023-04-12T09:29:00;15.70;99.90
36660;DHT22;22654;51.054;3.654;2023-04-12T09:31:26;15.80;99.90
36660;DHT22;22654;51.054;3.654;2023-04-12T09:33:51;15.90;99.90
36660;DHT22;22654;51.054;3.654;2023-04-12T09:36:17;16.30;99.90
36660;DHT22;22654;51.054;3.654;2023-04-12T09:38:59;16.60;99.90
36660;DHT22;22654;51.054;3.654;2023-04-12T09:41:28;17.00;99.90
36660;DHT22;22654;51.054;3.654;2023-04-12T09:43:59;17.20;99.90
36660;DHT22;22654;51.054;3.654;2023-04-12T09:46:25;17.00;99.90
36660;DHT22;22654;51.054;3.654;2023-04-12T09:48:55;16.90;99.90
36660;DHT22;22654;51.054;3.654;2023-04-12T09:53:51;17.40;99.90
36660;DHT22;22654;51.054;3.654;2023-04-12T09:56:18;17.40;99.90
36660;DHT22;22654;51.054;3.654;2023-04-12T09:58:49;17.30;99.90
36660;DHT22;22654;51.054;3.654;2023-04-12T10:01:16;17.20;99.90
36660;DHT22;22654;51.054;3.654;2023-04-12T10:03:42;17.10;99.90
36660;DHT22;22654;51.054;3.654;2023-04-12T10:06:08;16.90;99.90
36660;DHT22;22654;51.054;3.654;2023-04-12T10:08:37;16.40;99.90
36660;DHT22;22654;51.054;3.654;2023-04-12T10:11:03;16.00;99.90
36660;DHT22;22654;51.054;3.654;2023-04-12T10:13:30;15.60;99.90
36660;DHT22;22654;51.054;3.654;2023-04-12T10:15:56;15.40;99.90
36660;DHT22;22654;51.054;3.654;2023-04-12T10:18:23;15.50;99.90
36660;DHT22;22654;51.054;3.654;2023-04-12T10:20:50;15.60;99.90
36660;DHT22;22654;51.054;3.654;2023-04-12T10:23:17;15.60;99.90
36660;DHT22;22654;51.054;3.654;2023-04-12T10:25:44;15.70;99.90
36660;DHT22;22654;51.054;3.654;2023-04-12T10:30:40;15.70;99.90
36660;DHT22;22654;51.054;3.654;2023-04-12T10:38:12;15.40;99.90
36660;DHT22;22654;51.054;3.654;2023-04-12T10:40:40;14.80;99.90
36660;DHT22;22654;51.054;3.654;2023-04-12T10:43:24;14.10;99.90
36660;DHT22;22654;51.054;3.654;2023-04-12T10:45:54;13.40;99.90
36660;DHT22;22654;51.054;3.654;2023-04-12T10:48:30;12.70;99.90
36660;DHT22;22654;51.054;3.654;2023-04-12T10:53:42;12.00;99.90
36660;DHT22;22654;51.054;3.654;2023-04-12T10:58:57;12.20;99.90
36660;DHT22;22654;51.054;3.654;2023-04-12T11:01:23;12.20;99.90
36660;DHT22;22654;51.054;3.654;2023-04-12T11:14:30;12.30;99.90
36660;DHT22;22654;51.054;3.654;2023-04-12T11:19:33;12.70;99.90
36660;DHT22;22654;51.054;3.654;2023-04-12T11:21:59;12.90;99.90
36660;DHT22;22654;51.054;3.654;2023-04-12T11:24:25;12.80;99.90
36660;DHT22;22654;51.054;3.654;2023-04-12T11:26:52;13.00;99.90
36660;DHT22;22654;51.054;3.654;2023-04-12T11:29:24;13.20;99.90
36660;DHT22;22654;51.054;3.654;2023-04-12T11:31:50;13.40;99.90
36660;DHT22;22654;51.054;3.654;2023-04-12T11:34:16;13.90;99.90
36660;DHT22;22654;51.054;3.654;2023-04-12T11:36:43;14.10;99.90
36660;DHT22;22654;51.054;3.654;2023-04-12T11:39:09;14.20;99.90
36660;DHT22;22654;51.054;3.654;2023-04-12T11:41:35;14.00;99.90
36660;DHT22;22654;51.054;3.654;2023-04-12T11:44:01;14.00;99.90
36660;DHT22;22654;51.054;3.654;2023-04-12T11:46:32;14.20;99.90
36660;DHT22;22654;51.054;3.654;2023-04-12T11:49:04;14.40;99.90
36660;DHT22;22654;51.054;3.654;2023-04-12T11:51:30;14.50;99.90
36660;DHT22;22654;51.054;3.654;2023-04-12T11:53:57;14.50;99.90
36660;DHT22;22654;51.054;3.654;2023-04-12T11:56:29;14.40;99.90
36660;DHT22;22654;51.054;3.654;2023-04-12T11:58:57;14.70;99.90
36660;DHT22;22654;51.054;3.654;2023-04-12T12:01:22;15.10;99.90
36660;DHT22;22654;51.054;3.654;2023-04-12T12:03:48;15.30;99.90
36660;DHT22;22654;51.054;3.654;2023-04-12T12:06:14;15.40;99.90
36660;DHT22;22654;51.054;3.654;2023-04-12T12:08:40;15.50;99.90
36660;DHT22;22654;51.054;3.654;2023-04-12T12:11:06;15.30;99.90
36660;DHT22;22654;51.054;3.654;2023-04-12T12:13:45;15.10;99.90
36660;DHT22;22654;51.054;3.654;2023-04-12T12:16:11;15.00;99.90
36660;DHT22;22654;51.054;3.654;2023-04-12T12:18:40;14.90;99.90
36660;DHT22;22654;51.054;3.654;2023-04-12T12:21:09;14.80;99.90
36660;DHT22;22654;51.054;3.654;2023-04-12T12:23:35;15.30;99.90
36660;DHT22;22654;51.054;3.654;2023-04-12T12:26:01;15.50;99.90
36660;DHT22;22654;51.054;3.654;2023-04-12T12:28:39;15.50;99.90
36660;DHT22;22654;51.054;3.654;2023-04-12T12:31:05;14.70;99.90
36660;DHT22;22654;51.054;3.654;2023-04-12T12:33:38;13.50;99.90
36660;DHT22;22654;51.054;3.654;2023-04-12T12:36:07;12.80;99.90
36660;DHT22;22654;51.054;3.654;2023-04-12T12:38:36;12.30;99.90
36660;DHT22;22654;51.054;3.654;2023-04-12T12:41:18;12.30;99.90
36660;DHT22;22654;51.054;3.654;2023-04-12T12:43:45;12.60;99.90
36660;DHT22;22654;51.054;3.654;2023-04-12T12:46:12;12.70;99.90
36660;DHT22;22654;51.054;3.654;2023-04-12T12:48:39;12.70;99.90
36660;DHT22;22654;51.054;3.654;2023-04-12T12:51:05;12.60;99.90
36660;DHT22;22654;51.054;3.654;2023-04-12T12:53:30;12.70;99.90
36660;DHT22;22654;51.054;3.654;2023-04-12T12:55:56;12.80;99.90
36660;DHT22;22654;51.054;3.654;2023-04-12T12:58:22;12.90;99.90
36660;DHT22;22654;51.054;3.654;2023-04-12T13:00:48;13.00;99.90
36660;DHT22;22654;51.054;3.654;2023-04-12T13:03:13;13.20;99.90
36660;DHT22;22654;51.054;3.654;2023-04-12T13:05:39;13.30;99.90
36660;DHT22;22654;51.054;3.654;2023-04-12T13:08:05;13.50;99.90
36660;DHT22;22654;51.054;3.654;2023-04-12T13:10:31;13.70;99.90
36660;DHT22;22654;51.054;3.654;2023-04-12T13:12:57;14.20;99.90
36660;DHT22;22654;51.054;3.654;2023-04-12T13:15:23;14.60;99.90
36660;DHT22;22654;51.054;3.654;2023-04-12T13:17:52;14.80;99.90
36660;DHT22;22654;51.054;3.654;2023-04-12T13:20:17;14.80;99.90
36660;DHT22;22654;51.054;3.654;2023-04-12T13:22:43;14.80;99.90
36660;DHT22;22654;51.054;3.654;2023-04-12T13:25:09;14.70;99.90
36660;DHT22;22654;51.054;3.654;2023-04-12T13:27:35;14.70;99.90
36660;DHT22;22654;51.054;3.654;2023-04-12T13:30:02;14.90;99.90
36660;DHT22;22654;51.054;3.654;2023-04-12T13:32:28;14.70;99.90
36660;DHT22;22654;51.054;3.654;2023-04-12T13:34:54;14.60;99.90
36660;DHT22;22654;51.054;3.654;2023-04-12T13:37:20;14.60;99.90
36660;DHT22;22654;51.054;3.654;2023-04-12T13:39:46;14.70;99.90
36660;DHT22;22654;51.054;3.654;2023-04-12T13:42:11;15.00;99.90
36660;DHT22;22654;51.054;3.654;2023-04-12T13:44:40;15.10;99.90
36660;DHT22;22654;51.054;3.654;2023-04-12T13:47:06;15.20;99.90
36660;DHT22;22654;51.054;3.654;2023-04-12T13:49:31;14.90;99.90
36660;DHT22;22654;51.054;3.654;2023-04-12T13:51:57;14.70;99.90
36660;DHT22;22654;51.054;3.654;2023-04-12T13:54:23;14.50;99.90
36660;DHT22;22654;51.054;3.654;2023-04-12T13:56:48;14.60;99.90
36660;DHT22;22654;51.054;3.654;2023-04-12T13:59:15;14.60;99.90
36660;DHT22;22654;51.054;3.654;2023-04-12T14:01:40;14.90;99.90
36660;DHT22;22654;51.054;3.654;2023-04-12T14:04:06;15.10;99.90
36660;DHT22;22654;51.054;3.654;2023-04-12T14:06:32;15.20;99.90
36660;DHT22;22654;51.054;3.654;2023-04-12T14:08:57;15.50;99.90
36660;DHT22;22654;51.054;3.654;2023-04-12T14:11:23;15.50;99.90
36660;DHT22;22654;51.054;3.654;2023-04-12T14:13:49;15.50;99.90
36660;DHT22;22654;51.054;3.654;2023-04-12T14:16:15;14.90;99.90
36660;DHT22;22654;51.054;3.654;2023-04-12T14:18:41;14.60;99.90
36660;DHT22;22654;51.054;3.654;2023-04-12T14:21:07;14.60;99.90
36660;DHT22;22654;51.054;3.654;2023-04-12T14:23:34;14.50;99.90
36660;DHT22;22654;51.054;3.654;2023-04-12T14:26:00;14.30;99.90
36660;DHT22;22654;51.054;3.654;2023-04-12T14:28:26;14.10;99.90
36660;DHT22;22654;51.054;3.654;2023-04-12T14:30:55;14.10;99.90
36660;DHT22;22654;51.054;3.654;2023-04-12T14:33:22;14.30;99.90
36660;DHT22;22654;51.054;3.654;2023-04-12T14:35:48;14.50;99.90
36660;DHT22;22654;51.054;3.654;2023-04-12T14:38:13;14.70;99.90
36660;DHT22;22654;51.054;3.654;2023-04-12T14:40:39;14.80;99.90
36660;DHT22;22654;51.054;3.654;2023-04-12T14:43:05;14.70;99.90
36660;DHT22;22654;51.054;3.654;2023-04-12T14:45:30;14.60;99.90
36660;DHT22;22654;51.054;3.654;2023-04-12T14:47:56;14.70;99.90
36660;DHT22;22654;51.054;3.654;2023-04-12T14:50:22;14.80;99.90
36660;DHT22;22654;51.054;3.654;2023-04-12T14:52:48;14.90;99.90
36660;DHT22;22654;51.054;3.654;2023-04-12T14:55:13;15.00;99.90
36660;DHT22;22654;51.054;3.654;2023-04-12T14:57:41;15.00;99.90
36660;DHT22;22654;51.054;3.654;2023-04-12T15:00:07;15.10;99.90
36660;DHT22;22654;51.054;3.654;2023-04-12T15:02:38;15.20;99.90
36660;DHT22;22654;51.054;3.654;2023-04-12T15:05:04;15.10;99.90
36660;DHT22;22654;51.054;3.654;2023-04-12T15:07:32;15.10;99.90
36660;DHT22;22654;51.054;3.654;2023-04-12T15:09:58;14.90;99.90
36660;DHT22;22654;51.054;3.654;2023-04-12T15:12:25;15.00;99.90
36660;DHT22;22654;51.054;3.654;2023-04-12T15:14:51;15.10;99.90
36660;DHT22;22654;51.054;3.654;2023-04-12T15:17:18;15.40;99.90
36660;DHT22;22654;51.054;3.654;2023-04-12T15:19:44;15.60;99.90
36660;DHT22;22654;51.054;3.654;2023-04-12T15:22:10;15.50;99.90
36660;DHT22;22654;51.054;3.654;2023-04-12T15:24:36;15.70;99.90
36660;DHT22;22654;51.054;3.654;2023-04-12T15:27:03;15.80;99.80
36660;DHT22;22654;51.054;3.654;2023-04-12T15:29:29;15.90;99.10
36660;DHT22;22654;51.054;3.654;2023-04-12T15:31:55;15.90;98.90
36660;DHT22;22654;51.054;3.654;2023-04-12T15:34:21;15.90;98.70
36660;DHT22;22654;51.054;3.654;2023-04-12T15:36:51;15.40;99.00
36660;DHT22;22654;51.054;3.654;2023-04-12T15:39:17;15.70;98.70
36660;DHT22;22654;51.054;3.654;2023-04-12T15:41:46;15.80;98.50
36660;DHT22;22654;51.054;3.654;2023-04-12T15:44:12;15.90;97.90
36660;DHT22;22654;51.054;3.654;2023-04-12T15:46:40;15.70;98.00
36660;DHT22;22654;51.054;3.654;2023-04-12T15:49:06;15.70;98.30
36660;DHT22;22654;51.054;3.654;2023-04-12T15:51:32;16.00;98.50
36660;DHT22;22654;51.054;3.654;2023-04-12T15:53:59;16.10;98.20
36660;DHT22;22654;51.054;3.654;2023-04-12T15:56:25;16.20;98.10
36660;DHT22;22654;51.054;3.654;2023-04-12T15:58:51;16.50;97.90
36660;DHT22;22654;51.054;3.654;2023-04-12T16:01:18;16.40;96.70
36660;DHT22;22654;51.054;3.654;2023-04-12T16:03:45;16.60;96.90
36660;DHT22;22654;51.054;3.654;2023-04-12T16:06:13;16.80;96.20
36660;DHT22;22654;51.054;3.654;2023-04-12T16:08:47;17.00;95.40
36660;DHT22;22654;51.054;3.654;2023-04-12T16:11:16;17.30;94.80
36660;DHT22;22654;51.054;3.654;2023-04-12T16:13:42;17.10;94.40
36660;DHT22;22654;51.054;3.654;2023-04-12T16:16:10;16.90;95.10